No particular awareness of the weather is required.    There are no Weather-warnings


Meteo18 Weather Cam more information Meteo18 Weather Cam


Thunder radar more information blitzortung!


Rain radar more information rain snow radar


Visit our other weather sites:

Template documentation
and downloads

And another site



Weather Underground History page Text

Daily Summary for January 12, 2016 Units:  Metric    English   Both
« Previous Day
Next Day »
Daily Weekly Monthly Yearly Custom
  High: Low: Average:
Temperature: 8.4 °C 3.1 °C 6.2 °C
Dew Point: 5.4 °C 1.5 °C 4.2 °C
Humidity: 91 % 78 % 87 %
Wind Speed: 19.3 km/h 0.0 km/h 5.7 km/h
Wind Gust: 27.4 km/h - -
Wind:- - SW
Pressure: 1015.5 hPa 997.5 hPa -
Precipitation: 0.8 mm    
Historical Graphs
 
 
Tabular Data for January 12, 2016
Time Temperature Dew Point Pressure Wind Wind Speed Wind Gust Humidity Rainfall Rate (Hourly)
00:12 5.7 °C 4.2 °C 997.5 hPa SW 3.2 km/h 22.5 km/h 90 % 0.0 mm
00:17 5.8 °C 4.3 °C 997.5 hPa SW 9.7 km/h 22.5 km/h 90 % 0.0 mm
00:22 5.8 °C 4.3 °C 997.5 hPa SSE 12.9 km/h 24.1 km/h 90 % 0.0 mm
00:27 5.8 °C 4.3 °C 997.9 hPa SW 4.8 km/h 24.1 km/h 90 % 0.0 mm
00:42 6.0 °C 4.6 °C 997.9 hPa SW 1.6 km/h 20.9 km/h 91 % 0.0 mm
00:47 6.0 °C 4.6 °C 997.9 hPa West 9.7 km/h 20.9 km/h 91 % 0.0 mm
00:57 6.1 °C 4.7 °C 997.9 hPa SW 12.9 km/h 19.3 km/h 91 % 0.0 mm
01:02 6.2 °C 4.8 °C 997.9 hPa WSW 11.3 km/h 19.3 km/h 91 % 0.0 mm
01:07 6.2 °C 4.8 °C 997.9 hPa SW 1.6 km/h 19.3 km/h 91 % 0.0 mm
01:17 6.3 °C 4.9 °C 997.9 hPa WSW 3.2 km/h 17.7 km/h 91 % 0.0 mm
01:22 6.4 °C 5.0 °C 997.9 hPa SW 8.0 km/h 22.5 km/h 91 % 0.0 mm
01:27 6.5 °C 5.1 °C 997.9 hPa WSW 12.9 km/h 24.1 km/h 91 % 0.0 mm
01:37 6.7 °C 5.2 °C 998.2 hPa WSW 6.4 km/h 24.1 km/h 90 % 0.0 mm
01:42 6.7 °C 5.2 °C 998.2 hPa WSW 16.1 km/h 20.9 km/h 90 % 0.0 mm
01:47 6.8 °C 5.3 °C 998.5 hPa West 3.2 km/h 19.3 km/h 90 % 0.0 mm
01:52 6.8 °C 5.3 °C 998.2 hPa SSW 4.8 km/h 19.3 km/h 90 % 0.0 mm
01:57 6.8 °C 5.1 °C 998.2 hPa SW 17.7 km/h 22.5 km/h 89 % 0.0 mm
02:12 6.9 °C 5.2 °C 998.2 hPa WSW 12.9 km/h 25.7 km/h 89 % 0.0 mm
02:17 6.9 °C 5.2 °C 998.5 hPa WSW 4.8 km/h 25.7 km/h 89 % 0.0 mm
02:22 6.9 °C 5.2 °C 998.5 hPa SW 12.9 km/h 25.7 km/h 89 % 0.0 mm
02:27 6.9 °C 5.2 °C 998.5 hPa SW 8.0 km/h 20.9 km/h 89 % 0.0 mm
02:32 7.0 °C 5.1 °C 998.5 hPa South 17.7 km/h 25.7 km/h 88 % 0.0 mm
02:37 7.1 °C 5.2 °C 998.5 hPa SW 14.5 km/h 25.7 km/h 88 % 0.0 mm
02:42 7.1 °C 5.2 °C 998.9 hPa SW 12.9 km/h 25.7 km/h 88 % 0.0 mm
02:47 7.1 °C 5.2 °C 998.9 hPa SW 19.3 km/h 24.1 km/h 88 % 0.0 mm
02:52 7.1 °C 5.2 °C 999.2 hPa SSW 6.4 km/h 22.5 km/h 88 % 0.0 mm
02:57 7.2 °C 5.3 °C 999.2 hPa SW 3.2 km/h 19.3 km/h 88 % 0.0 mm
03:02 7.1 °C 5.2 °C 999.2 hPa West 8.0 km/h 19.3 km/h 88 % 0.0 mm
03:07 7.2 °C 5.3 °C 999.2 hPa South 4.8 km/h 22.5 km/h 88 % 0.0 mm
03:12 7.1 °C 5.2 °C 999.5 hPa SSW 12.9 km/h 22.5 km/h 88 % 0.0 mm
03:17 7.1 °C 5.4 °C 999.5 hPa South 3.2 km/h 25.7 km/h 89 % 0.0 mm
03:22 7.0 °C 5.1 °C 999.9 hPa South 3.2 km/h 25.7 km/h 88 % 0.0 mm
03:27 7.1 °C 5.2 °C 1000.2 hPa SW 6.4 km/h 25.7 km/h 88 % 0.0 mm
03:32 7.0 °C 5.1 °C 1000.2 hPa West 9.7 km/h 19.3 km/h 88 % 0.0 mm
03:37 7.0 °C 5.1 °C 1000.2 hPa SW 3.2 km/h 19.3 km/h 88 % 0.0 mm
03:42 6.9 °C 5.1 °C 1000.6 hPa SSE 3.2 km/h 19.3 km/h 88 % 0.0 mm
03:47 7.0 °C 5.1 °C 1000.6 hPa WSW 6.4 km/h 19.3 km/h 88 % 0.0 mm
03:57 7.1 °C 4.9 °C 1000.6 hPa WSW 9.7 km/h 17.7 km/h 86 % 0.0 mm
04:02 7.1 °C 4.9 °C 1000.6 hPa WSW 4.8 km/h 22.5 km/h 86 % 0.0 mm
04:12 7.1 °C 4.9 °C 1000.9 hPa SW 6.4 km/h 12.9 km/h 86 % 0.0 mm
04:17 7.0 °C 4.8 °C 1000.9 hPa WSW 9.7 km/h 17.7 km/h 86 % 0.0 mm
04:22 7.0 °C 4.8 °C 1001.2 hPa Calm   17.7 km/h 86 % 0.0 mm
04:27 6.9 °C 4.7 °C 1001.2 hPa SW 3.2 km/h 16.1 km/h 86 % 0.0 mm
04:32 7.0 °C 4.8 °C 1001.2 hPa SSW 3.2 km/h 16.1 km/h 86 % 0.0 mm
04:42 7.0 °C 5.0 °C 1001.6 hPa WSW 3.2 km/h 16.1 km/h 87 % 0.0 mm
04:52 7.1 °C 5.1 °C 1001.9 hPa ENE 4.8 km/h 12.9 km/h 87 % 0.0 mm
04:57 7.1 °C 5.1 °C 1001.9 hPa SW 8.0 km/h 16.1 km/h 87 % 0.0 mm
05:02 7.1 °C 5.1 °C 1001.9 hPa SW 3.2 km/h 16.1 km/h 87 % 0.0 mm
05:07 7.1 °C 5.1 °C 1001.9 hPa SW 11.3 km/h 11.3 km/h 87 % 0.0 mm
05:12 7.1 °C 5.1 °C 1001.9 hPa WSW 6.4 km/h 11.3 km/h 87 % 0.0 mm
05:17 7.1 °C 5.1 °C 1002.3 hPa WSW 4.8 km/h 16.1 km/h 87 % 0.0 mm
05:22 7.1 °C 5.1 °C 1002.3 hPa NW 1.6 km/h 16.1 km/h 87 % 0.0 mm
05:27 7.1 °C 5.1 °C 1002.3 hPa SW 6.4 km/h 16.1 km/h 87 % 0.0 mm
05:32 7.1 °C 5.1 °C 1002.6 hPa SSE 8.0 km/h 16.1 km/h 87 % 0.0 mm
05:37 7.1 °C 5.1 °C 1002.6 hPa SW 3.2 km/h 12.9 km/h 87 % 0.0 mm
05:47 7.1 °C 5.1 °C 1002.6 hPa SSW 3.2 km/h 12.9 km/h 87 % 0.0 mm
05:52 7.1 °C 5.1 °C 1002.6 hPa WSW 3.2 km/h 12.9 km/h 87 % 0.0 mm
05:57 7.1 °C 5.1 °C 1002.9 hPa SW 8.0 km/h 16.1 km/h 87 % 0.0 mm
06:02 7.0 °C 5.0 °C 1002.9 hPa SW 4.8 km/h 16.1 km/h 87 % 0.0 mm
06:12 6.9 °C 4.9 °C 1002.9 hPa WSW 3.2 km/h 14.5 km/h 87 % 0.0 mm
06:17 6.9 °C 4.9 °C 1002.9 hPa SW 8.0 km/h 14.5 km/h 87 % 0.0 mm
06:22 6.9 °C 4.9 °C 1002.9 hPa WSW 3.2 km/h 14.5 km/h 87 % 0.0 mm
06:27 6.8 °C 5.0 °C 1003.3 hPa SW 4.8 km/h 14.5 km/h 88 % 0.0 mm
06:32 6.7 °C 4.9 °C 1003.3 hPa SW 12.9 km/h 14.5 km/h 88 % 0.0 mm
06:37 6.7 °C 4.9 °C 1003.3 hPa SW 6.4 km/h 14.5 km/h 88 % 0.0 mm
06:42 6.7 °C 4.9 °C 1003.3 hPa West 6.4 km/h 17.7 km/h 88 % 0.0 mm
06:52 6.7 °C 4.9 °C 1003.3 hPa SW 3.2 km/h 16.1 km/h 88 % 0.0 mm
06:57 6.6 °C 4.8 °C 1003.6 hPa SW 6.4 km/h 16.1 km/h 88 % 0.0 mm
07:07 6.4 °C 4.7 °C 1003.6 hPa SW 4.8 km/h 16.1 km/h 89 % 0.0 mm
07:12 6.4 °C 4.7 °C 1003.9 hPa SW 8.0 km/h 16.1 km/h 89 % 0.0 mm
07:17 6.3 °C 4.6 °C 1003.9 hPa SSW 4.8 km/h 20.9 km/h 89 % 0.0 mm
07:22 6.3 °C 4.8 °C 1003.9 hPa SW 4.8 km/h 20.9 km/h 90 % 0.0 mm
07:32 6.2 °C 4.7 °C 1004.3 hPa WSW 3.2 km/h 20.9 km/h 90 % 0.0 mm
07:37 6.2 °C 4.7 °C 1004.3 hPa SW 1.6 km/h 20.9 km/h 90 % 0.0 mm
07:42 6.2 °C 4.7 °C 1004.6 hPa SW 3.2 km/h 12.9 km/h 90 % 0.0 mm
07:47 6.2 °C 4.7 °C 1004.6 hPa SW 4.8 km/h 12.9 km/h 90 % 0.0 mm
07:52 6.2 °C 4.5 °C 1005.0 hPa SW 4.8 km/h 11.3 km/h 89 % 0.0 mm
07:57 6.2 °C 4.5 °C 1005.0 hPa WSW 4.8 km/h 11.3 km/h 89 % 0.0 mm
08:02 6.3 °C 4.6 °C 1005.0 hPa SW 4.8 km/h 14.5 km/h 89 % 0.0 mm
08:12 6.2 °C 4.5 °C 1005.0 hPa SSW 4.8 km/h 14.5 km/h 89 % 0.0 mm
08:17 6.2 °C 4.5 °C 1005.0 hPa WSW 1.6 km/h 14.5 km/h 89 % 0.0 mm
08:22 6.2 °C 4.5 °C 1005.0 hPa SW 8.0 km/h 16.1 km/h 89 % 0.0 mm
08:27 6.2 °C 4.5 °C 1005.3 hPa SW 6.4 km/h 16.1 km/h 89 % 0.0 mm
08:37 6.0 °C 4.3 °C 1005.3 hPa SW 8.0 km/h 20.9 km/h 89 % 0.0 mm
08:42 6.0 °C 4.5 °C 1005.3 hPa WSW 14.5 km/h 17.7 km/h 90 % 0.0 mm
08:47 6.1 °C 4.6 °C 1005.3 hPa SSW 11.3 km/h 17.7 km/h 90 % 0.0 mm
08:52 6.1 °C 4.6 °C 1005.3 hPa WSW 14.5 km/h 17.7 km/h 90 % 0.0 mm
08:57 6.1 °C 4.6 °C 1005.3 hPa WSW 8.0 km/h 19.3 km/h 90 % 0.0 mm
09:12 5.9 °C 4.4 °C 1005.6 hPa SW 9.7 km/h 16.1 km/h 90 % 0.0 mm
09:17 5.8 °C 4.3 °C 1005.6 hPa SW 8.0 km/h 17.7 km/h 90 % 0.0 mm
09:22 5.8 °C 4.3 °C 1005.6 hPa SW 3.2 km/h 17.7 km/h 90 % 0.0 mm
09:32 5.8 °C 4.3 °C 1006.0 hPa SSW 8.0 km/h 17.7 km/h 90 % 0.0 mm
09:37 5.8 °C 4.3 °C 1006.0 hPa SSW 3.2 km/h 17.7 km/h 90 % 0.0 mm
09:42 5.8 °C 4.3 °C 1006.0 hPa SE 1.6 km/h 17.7 km/h 90 % 0.0 mm
09:52 6.1 °C 4.4 °C 1006.3 hPa WSW 3.2 km/h 17.7 km/h 89 % 0.0 mm
09:57 6.1 °C 4.4 °C 1006.3 hPa SW 6.4 km/h 17.7 km/h 89 % 0.0 mm
10:02 6.2 °C 4.5 °C 1006.3 hPa SW 8.0 km/h 14.5 km/h 89 % 0.0 mm
10:07 6.2 °C 4.5 °C 1006.3 hPa WSW 6.4 km/h 12.9 km/h 89 % 0.0 mm
10:12 6.3 °C 4.6 °C 1006.7 hPa SW 6.4 km/h 14.5 km/h 89 % 0.0 mm
10:17 6.4 °C 4.7 °C 1006.7 hPa SW 4.8 km/h 14.5 km/h 89 % 0.0 mm
10:22 6.4 °C 4.7 °C 1006.7 hPa WSW 6.4 km/h 14.5 km/h 89 % 0.0 mm
10:32 6.6 °C 4.9 °C 1006.7 hPa WSW 11.3 km/h 16.1 km/h 89 % 0.0 mm
10:42 6.9 °C 4.9 °C 1006.7 hPa SW 14.5 km/h 16.1 km/h 87 % 0.0 mm
10:47 7.0 °C 5.0 °C 1006.7 hPa SW 4.8 km/h 16.1 km/h 87 % 0.0 mm
10:52 7.1 °C 5.1 °C 1006.7 hPa SSW 4.8 km/h 16.1 km/h 87 % 0.0 mm
10:57 7.2 °C 5.2 °C 1006.7 hPa SSE 8.0 km/h 16.1 km/h 87 % 0.0 mm
11:02 7.2 °C 5.2 °C 1007.0 hPa South 4.8 km/h 16.1 km/h 87 % 0.0 mm
11:07 7.4 °C 5.2 °C 1006.7 hPa SW 4.8 km/h 16.1 km/h 86 % 0.0 mm
11:12 7.6 °C 5.4 °C 1006.7 hPa SW 6.4 km/h 16.1 km/h 86 % 0.0 mm
11:17 7.7 °C 5.3 °C 1007.0 hPa SW 8.0 km/h 22.5 km/h 85 % 0.0 mm
11:27 7.5 °C 5.0 °C 1007.0 hPa SW 4.8 km/h 27.4 km/h 84 % 0.0 mm
11:32 7.4 °C 5.0 °C 1007.0 hPa SW 3.2 km/h 27.4 km/h 85 % 0.0 mm
11:37 7.3 °C 4.8 °C 1006.7 hPa WSW 9.7 km/h 22.5 km/h 84 % 0.0 mm
11:42 7.2 °C 4.8 °C 1007.0 hPa SSW 9.7 km/h 22.5 km/h 85 % 0.0 mm
11:47 7.3 °C 4.9 °C 1007.0 hPa West 3.2 km/h 20.9 km/h 85 % 0.0 mm
11:52 7.3 °C 4.8 °C 1007.0 hPa SSW 9.7 km/h 20.9 km/h 84 % 0.0 mm
11:57 7.4 °C 5.0 °C 1007.0 hPa WSW 1.6 km/h 20.9 km/h 85 % 0.0 mm
12:02 7.6 °C 5.2 °C 1006.7 hPa SW 6.4 km/h 20.9 km/h 85 % 0.0 mm
12:07 7.7 °C 5.2 °C 1007.0 hPa South 4.8 km/h 16.1 km/h 84 % 0.0 mm
12:12 7.8 °C 5.1 °C 1006.7 hPa West 9.7 km/h 19.3 km/h 83 % 0.0 mm
12:17 7.8 °C 5.1 °C 1006.7 hPa ESE 4.8 km/h 19.3 km/h 83 % 0.0 mm
12:22 7.9 °C 4.7 °C 1006.7 hPa SSE 12.9 km/h 19.3 km/h 80 % 0.0 mm
12:27 8.0 °C 4.8 °C 1006.7 hPa SSW 3.2 km/h 22.5 km/h 80 % 0.0 mm
12:32 8.3 °C 5.2 °C 1006.7 hPa SW 4.8 km/h 22.5 km/h 81 % 0.0 mm
12:42 8.3 °C 5.2 °C 1006.7 hPa SSE 3.2 km/h 16.1 km/h 81 % 0.0 mm
12:47 8.4 °C 5.2 °C 1006.7 hPa SW 8.0 km/h 16.1 km/h 80 % 0.0 mm
12:52 8.2 °C 4.8 °C 1006.7 hPa WSW 4.8 km/h 20.9 km/h 79 % 0.0 mm
12:57 8.2 °C 5.0 °C 1006.7 hPa SW 6.4 km/h 20.9 km/h 80 % 0.0 mm
13:02 8.2 °C 5.1 °C 1006.7 hPa WSW 3.2 km/h 20.9 km/h 81 % 0.0 mm
13:07 8.4 °C 5.3 °C 1006.7 hPa SW 6.4 km/h 12.9 km/h 81 % 0.0 mm
13:12 8.4 °C 5.0 °C 1006.7 hPa SW 12.9 km/h 20.9 km/h 79 % 0.0 mm
13:17 8.2 °C 4.8 °C 1006.7 hPa SW 11.3 km/h 20.9 km/h 79 % 0.0 mm
13:22 7.9 °C 4.8 °C 1006.7 hPa SW 8.0 km/h 20.9 km/h 81 % 0.0 mm
13:32 7.4 °C 4.9 °C 1006.7 hPa SW 3.2 km/h 19.3 km/h 84 % 0.3 mm
13:37 7.3 °C 4.8 °C 1006.7 hPa WSW 14.5 km/h 17.7 km/h 84 % 0.3 mm
13:42 7.4 °C 4.7 °C 1006.7 hPa SW 8.0 km/h 17.7 km/h 83 % 0.3 mm
13:47 7.6 °C 4.9 °C 1006.7 hPa SW 4.8 km/h 19.3 km/h 83 % 0.3 mm
13:52 7.7 °C 4.6 °C 1006.7 hPa WSW 4.8 km/h 19.3 km/h 81 % 0.3 mm
13:57 7.8 °C 4.7 °C 1006.7 hPa West 1.6 km/h 19.3 km/h 81 % 0.3 mm
14:12 7.8 °C 4.2 °C 1006.3 hPa SSW 8.0 km/h 20.9 km/h 78 % 0.3 mm
14:17 7.8 °C 4.2 °C 1006.3 hPa SW 8.0 km/h 20.9 km/h 78 % 0.3 mm
14:22 7.7 °C 4.3 °C 1006.7 hPa SW 6.4 km/h 20.9 km/h 79 % 0.3 mm
14:32 7.7 °C 4.3 °C 1006.3 hPa SW 11.3 km/h 17.7 km/h 79 % 0.0 mm
14:37 7.7 °C 4.5 °C 1006.3 hPa West 4.8 km/h 19.3 km/h 80 % 0.0 mm
14:42 7.6 °C 4.4 °C 1006.3 hPa SW 12.9 km/h 19.3 km/h 80 % 0.0 mm
14:47 7.3 °C 4.4 °C 1006.3 hPa WSW 4.8 km/h 24.1 km/h 82 % 0.3 mm
14:52 7.1 °C 4.4 °C 1006.7 hPa SSE 4.8 km/h 24.1 km/h 83 % 0.3 mm
14:57 6.9 °C 4.4 °C 1006.7 hPa SW 12.9 km/h 24.1 km/h 84 % 0.3 mm
15:02 6.6 °C 4.4 °C 1006.3 hPa Calm   17.7 km/h 86 % 0.5 mm
15:12 6.7 °C 4.7 °C 1006.7 hPa SW 8.0 km/h 17.7 km/h 87 % 0.5 mm
15:22 6.8 °C 4.5 °C 1006.7 hPa WSW 4.8 km/h 14.5 km/h 85 % 0.5 mm
15:37 6.9 °C 4.4 °C 1006.7 hPa West 1.6 km/h 19.3 km/h 84 % 0.5 mm
15:42 6.9 °C 4.4 °C 1006.7 hPa WSW 6.4 km/h 19.3 km/h 84 % 0.5 mm
15:47 6.8 °C 4.3 °C 1006.7 hPa SW 4.8 km/h 14.5 km/h 84 % 0.3 mm
15:52 6.8 °C 4.5 °C 1006.7 hPa SW 1.6 km/h 14.5 km/h 85 % 0.3 mm
15:57 6.8 °C 4.1 °C 1006.7 hPa SSW 1.6 km/h 14.5 km/h 83 % 0.3 mm
16:02 6.8 °C 4.3 °C 1007.0 hPa WSW 8.0 km/h 14.5 km/h 84 % 0.0 mm
16:17 6.9 °C 3.5 °C 1007.0 hPa WSW 4.8 km/h 16.1 km/h 79 % 0.0 mm
16:22 6.8 °C 3.6 °C 1007.3 hPa WSW 6.4 km/h 16.1 km/h 80 % 0.0 mm
16:32 6.8 °C 3.6 °C 1007.3 hPa West 9.7 km/h 14.5 km/h 80 % 0.0 mm
16:37 6.8 °C 3.6 °C 1007.3 hPa WSW 8.0 km/h 14.5 km/h 80 % 0.0 mm
16:42 6.7 °C 3.7 °C 1007.3 hPa WSW 8.0 km/h 14.5 km/h 81 % 0.0 mm
16:57 6.4 °C 4.1 °C 1007.7 hPa Calm   12.9 km/h 85 % 0.0 mm
17:02 6.4 °C 4.1 °C 1008.0 hPa SW 3.2 km/h 11.3 km/h 85 % 0.0 mm
17:12 6.1 °C 4.1 °C 1008.0 hPa SSW 6.4 km/h 11.3 km/h 87 % 0.3 mm
17:17 6.0 °C 3.8 °C 1008.4 hPa Calm   9.7 km/h 86 % 0.3 mm
17:22 6.0 °C 3.7 °C 1008.4 hPa WSW 1.6 km/h 9.7 km/h 85 % 0.3 mm
17:27 5.9 °C 3.7 °C 1008.4 hPa SSE 3.2 km/h 9.7 km/h 86 % 0.3 mm
17:32 5.9 °C 3.7 °C 1008.4 hPa Calm   9.7 km/h 86 % 0.3 mm
17:42 6.0 °C 3.7 °C 1008.7 hPa SW 1.6 km/h 6.4 km/h 85 % 0.3 mm
17:52 6.0 °C 3.5 °C 1009.0 hPa WSW 1.6 km/h 12.9 km/h 84 % 0.3 mm
17:57 5.8 °C 3.5 °C 1009.0 hPa SSW 4.8 km/h 12.9 km/h 85 % 0.3 mm
18:02 5.8 °C 3.5 °C 1009.0 hPa Calm   17.7 km/h 85 % 0.3 mm
18:12 5.5 °C 3.3 °C 1009.4 hPa SW 1.6 km/h 12.9 km/h 86 % 0.0 mm
18:17 5.5 °C 3.5 °C 1009.4 hPa SSW 4.8 km/h 12.9 km/h 87 % 0.0 mm
18:22 5.3 °C 3.3 °C 1009.4 hPa SSW 8.0 km/h 11.3 km/h 87 % 0.0 mm
18:27 5.2 °C 3.2 °C 1009.4 hPa Calm   11.3 km/h 87 % 0.0 mm
18:32 5.1 °C 3.1 °C 1009.7 hPa NNE 1.6 km/h 11.3 km/h 87 % 0.0 mm
18:37 5.1 °C 3.3 °C 1010.0 hPa Calm   11.3 km/h 88 % 0.0 mm
18:42 5.0 °C 3.2 °C 1010.0 hPa SSE 1.6 km/h 9.7 km/h 88 % 0.0 mm
18:47 5.0 °C 3.2 °C 1010.0 hPa NE 1.6 km/h 9.7 km/h 88 % 0.0 mm
18:52 5.1 °C 3.3 °C 1010.4 hPa Calm   9.7 km/h 88 % 0.0 mm
18:57 4.8 °C 2.5 °C 1010.4 hPa ENE 1.6 km/h 14.5 km/h 85 % 0.0 mm
19:02 4.4 °C 2.4 °C 1010.4 hPa Calm   14.5 km/h 87 % 0.0 mm
19:12 4.6 °C 2.9 °C 1010.7 hPa SSE 1.6 km/h 11.3 km/h 89 % 0.0 mm
19:17 4.9 °C 3.1 °C 1010.7 hPa Calm   8.0 km/h 88 % 0.0 mm
19:22 4.9 °C 3.1 °C 1010.7 hPa SW 1.6 km/h 8.0 km/h 88 % 0.0 mm
19:27 5.0 °C 3.2 °C 1011.1 hPa WNW 1.6 km/h 12.9 km/h 88 % 0.0 mm
19:32 4.9 °C 3.1 °C 1011.1 hPa SSW 3.2 km/h 12.9 km/h 88 % 0.0 mm
19:37 4.8 °C 3.0 °C 1011.1 hPa SW 3.2 km/h 12.9 km/h 88 % 0.0 mm
19:42 4.8 °C 3.1 °C 1011.1 hPa WSW 1.6 km/h 9.7 km/h 89 % 0.0 mm
19:52 4.7 °C 3.0 °C 1011.4 hPa WSW 3.2 km/h 11.3 km/h 89 % 0.0 mm
19:57 4.6 °C 2.9 °C 1011.7 hPa SW 3.2 km/h 11.3 km/h 89 % 0.0 mm
20:07 4.4 °C 2.7 °C 1011.7 hPa West 3.2 km/h 9.7 km/h 89 % 0.0 mm
20:12 4.4 °C 2.7 °C 1012.1 hPa WSW 1.6 km/h 9.7 km/h 89 % 0.0 mm
20:22 4.5 °C 2.8 °C 1012.1 hPa SW 1.6 km/h 9.7 km/h 89 % 0.0 mm
20:27 4.5 °C 2.8 °C 1012.1 hPa SW 4.8 km/h 9.7 km/h 89 % 0.0 mm
20:32 4.5 °C 2.8 °C 1012.4 hPa Calm   17.7 km/h 89 % 0.0 mm
20:37 4.4 °C 2.7 °C 1012.4 hPa Calm   17.7 km/h 89 % 0.0 mm
20:42 4.4 °C 2.6 °C 1012.4 hPa SSE 4.8 km/h 17.7 km/h 88 % 0.0 mm
20:47 4.4 °C 2.6 °C 1012.4 hPa SW 4.8 km/h 11.3 km/h 88 % 0.0 mm
20:52 4.3 °C 2.5 °C 1012.8 hPa WSW 4.8 km/h 11.3 km/h 88 % 0.0 mm
20:57 4.3 °C 2.5 °C 1012.8 hPa WSW 3.2 km/h 11.3 km/h 88 % 0.0 mm
21:02 4.3 °C 2.5 °C 1012.8 hPa WSW 3.2 km/h 11.3 km/h 88 % 0.0 mm
21:07 4.2 °C 2.4 °C 1012.8 hPa SW 9.7 km/h 11.3 km/h 88 % 0.0 mm
21:17 4.1 °C 2.3 °C 1012.8 hPa East 3.2 km/h 11.3 km/h 88 % 0.0 mm
21:22 3.9 °C 2.3 °C 1012.8 hPa SW 4.8 km/h 12.9 km/h 89 % 0.0 mm
21:27 3.8 °C 2.2 °C 1012.8 hPa WSW 3.2 km/h 12.9 km/h 89 % 0.0 mm
21:42 3.7 °C 2.1 °C 1013.1 hPa SW 4.8 km/h 14.5 km/h 89 % 0.0 mm
21:52 3.6 °C 2.1 °C 1013.4 hPa Calm   14.5 km/h 90 % 0.0 mm
21:57 3.6 °C 2.1 °C 1013.4 hPa WSW 1.6 km/h 11.3 km/h 90 % 0.0 mm
22:02 3.6 °C 2.1 °C 1013.4 hPa SSW 4.8 km/h 11.3 km/h 90 % 0.0 mm
22:12 3.6 °C 2.1 °C 1013.8 hPa SSW 3.2 km/h 11.3 km/h 90 % 0.0 mm
22:17 3.6 °C 2.1 °C 1013.8 hPa SW 3.2 km/h 12.9 km/h 90 % 0.0 mm
22:22 3.6 °C 2.1 °C 1013.8 hPa SW 6.4 km/h 12.9 km/h 90 % 0.0 mm
22:32 3.5 °C 2.0 °C 1013.8 hPa WSW 1.6 km/h 16.1 km/h 90 % 0.0 mm
22:37 3.4 °C 1.9 °C 1013.8 hPa SW 3.2 km/h 16.1 km/h 90 % 0.0 mm
22:42 3.4 °C 1.9 °C 1014.1 hPa SW 11.3 km/h 16.1 km/h 90 % 0.0 mm
22:47 3.4 °C 1.8 °C 1014.1 hPa SW 4.8 km/h 22.5 km/h 89 % 0.0 mm
22:52 3.4 °C 1.8 °C 1014.1 hPa WSW 6.4 km/h 22.5 km/h 89 % 0.0 mm
22:57 3.4 °C 1.8 °C 1014.4 hPa SW 4.8 km/h 16.1 km/h 89 % 0.0 mm
23:02 3.3 °C 1.7 °C 1014.4 hPa WSW 1.6 km/h 12.9 km/h 89 % 0.0 mm
23:12 3.2 °C 1.6 °C 1014.4 hPa WNW 3.2 km/h 12.9 km/h 89 % 0.0 mm
23:17 3.2 °C 1.6 °C 1014.8 hPa WSW 3.2 km/h 12.9 km/h 89 % 0.0 mm
23:22 3.3 °C 1.7 °C 1014.8 hPa SW 6.4 km/h 19.3 km/h 89 % 0.0 mm
23:32 3.2 °C 1.6 °C 1014.8 hPa South 4.8 km/h 19.3 km/h 89 % 0.0 mm
23:37 3.2 °C 1.6 °C 1015.1 hPa SW 6.4 km/h 9.7 km/h 89 % 0.0 mm
23:42 3.2 °C 1.6 °C 1015.1 hPa WSW 4.8 km/h 11.3 km/h 89 % 0.0 mm
23:47 3.1 °C 1.5 °C 1015.1 hPa SW 9.7 km/h 11.3 km/h 89 % 0.0 mm
23:52 3.1 °C 1.5 °C 1015.5 hPa SW 1.6 km/h 12.9 km/h 89 % 0.0 mm
23:57 3.1 °C 1.5 °C 1015.5 hPa SW 1.6 km/h 14.5 km/h 89 % 0.0 mm
Meteo18
Compliments of Weather Underground - 4 mb

Script developed by  Jim McMurry - jmcmurry@mwt.net Adapted for the template by  Wim van der Kuil - Leuven-Template.eu

You find our weather info also at:

European Weather Network

Weather Underground

Equipment we use:

Weather-station
Davis Vue

Weather-program
Meteohub

Weather-server
Raspberry PI 2 B+

Provider
1 and 1

Davis Vue

Meteohub

Raspberry PI 2 B+

1 and 1